Time;durP1;ratioP1;P1;durP2;ratioP2;P2;SDS_P1;SDS_P2;PMS_P1;PMS_P2;Temp;Humidity;BMP_temperature;BMP_pressure;BME280_temperature;BME280_humidity;BME280_pressure;Samples;Min_cycle;Max_cycle;Signal;HPM_P1;HPM_P2
2024/02/02 00:00:18;;;;;;;15.47;7.83;;;7.00;99.90;;;;;;5031566;28;20201;-68
2024/02/02 00:02:44;;;;;;;18.87;8.03;;;7.00;99.90;;;;;;5029938;28;20191;-68
2024/02/02 00:05:10;;;;;;;14.10;6.90;;;7.00;99.90;;;;;;5030943;28;20488;-65
2024/02/02 00:07:35;;;;;;;12.63;7.20;;;7.00;99.90;;;;;;5030591;28;20912;-70
2024/02/02 00:10:01;;;;;;;11.03;6.43;;;7.00;99.90;;;;;;5029584;28;20593;-68
2024/02/02 00:12:27;;;;;;;18.97;6.90;;;7.00;99.90;;;;;;5031529;28;20247;-70
2024/02/02 00:14:53;;;;;;;13.13;6.07;;;7.00;99.90;;;;;;5030860;28;20428;-70
2024/02/02 00:17:19;;;;;;;13.40;6.10;;;7.00;99.90;;;;;;5029958;28;20417;-67
2024/02/02 00:19:45;;;;;;;15.17;6.80;;;7.00;99.90;;;;;;5030956;28;20297;-67
2024/02/02 00:22:11;;;;;;;18.00;5.57;;;7.00;99.90;;;;;;5028827;28;20439;-71
2024/02/02 00:24:37;;;;;;;13.57;7.40;;;6.90;99.90;;;;;;5032151;28;20421;-67
2024/02/02 00:27:04;;;;;;;14.67;6.80;;;6.90;99.90;;;;;;5029385;28;20201;-67
2024/02/02 00:29:29;;;;;;;12.70;6.10;;;7.00;99.90;;;;;;5030689;28;20429;-64
2024/02/02 00:31:55;;;;;;;16.03;7.27;;;7.00;99.90;;;;;;5030618;28;20554;-68
2024/02/02 00:34:21;;;;;;;13.67;6.93;;;6.90;99.90;;;;;;5031368;28;20653;-70
2024/02/02 00:36:47;;;;;;;15.30;6.60;;;6.90;99.90;;;;;;5031559;28;20598;-70
2024/02/02 00:39:12;;;;;;;17.33;7.87;;;6.90;99.90;;;;;;5030794;28;20947;-66
2024/02/02 00:41:38;;;;;;;19.33;7.03;;;6.90;99.90;;;;;;5030609;28;20212;-71
2024/02/02 00:44:06;;;;;;;13.43;7.17;;;6.90;99.90;;;;;;5029902;28;20213;-70
2024/02/02 00:46:32;;;;;;;14.57;7.43;;;6.80;99.90;;;;;;5030365;28;20236;-67
2024/02/02 00:48:57;;;;;;;18.67;7.43;;;6.80;99.90;;;;;;5031114;28;20875;-65
2024/02/02 00:51:23;;;;;;;26.13;7.97;;;6.80;99.90;;;;;;5029827;28;20474;-68
2024/02/02 00:53:49;;;;;;;13.93;6.90;;;6.80;99.90;;;;;;5031624;28;20214;-70
2024/02/02 00:56:15;;;;;;;15.20;8.87;;;6.70;99.90;;;;;;5036315;28;20280;-69
2024/02/02 00:58:40;;;;;;;20.17;8.17;;;6.70;99.90;;;;;;5037773;28;20182;-67
2024/02/02 01:01:06;;;;;;;16.30;8.73;;;6.70;99.90;;;;;;5036713;28;20192;-69
2024/02/02 01:03:37;;;;;;;17.00;7.30;;;6.80;99.90;;;;;;5037743;28;20193;-70
2024/02/02 01:06:04;;;;;;;13.97;7.47;;;6.80;99.90;;;;;;5036345;28;20185;-68
2024/02/02 01:08:30;;;;;;;16.20;7.70;;;6.80;99.90;;;;;;5037451;28;21004;-66
2024/02/02 01:10:56;;;;;;;17.87;8.73;;;6.80;99.90;;;;;;5037164;28;20539;-71
2024/02/02 01:13:22;;;;;;;15.20;8.40;;;6.80;99.90;;;;;;5036608;28;20703;-69
2024/02/02 01:15:48;;;;;;;18.33;7.73;;;6.80;99.90;;;;;;5037309;28;20424;-67
2024/02/02 01:18:14;;;;;;;22.33;9.27;;;6.80;99.90;;;;;;5019624;28;20247;-68
2024/02/02 01:20:42;;;;;;;13.27;7.67;;;6.80;99.90;;;;;;5037258;28;20574;-68
2024/02/02 01:23:08;;;;;;;21.03;8.57;;;6.80;99.90;;;;;;5037059;28;21167;-69
2024/02/02 01:25:34;;;;;;;28.00;9.50;;;6.80;99.90;;;;;;5035908;28;20545;-69
2024/02/02 01:28:00;;;;;;;16.33;8.30;;;6.70;99.90;;;;;;5035254;28;20439;-70
2024/02/02 01:30:29;;;;;;;17.00;7.70;;;6.70;99.90;;;;;;5036097;28;20812;-71
2024/02/02 01:32:55;;;;;;;14.07;7.67;;;6.70;99.90;;;;;;5037109;28;20468;-70
2024/02/02 01:35:21;;;;;;;19.00;8.73;;;6.80;99.90;;;;;;5035748;28;20435;-72
2024/02/02 01:37:47;;;;;;;20.97;7.60;;;6.70;99.90;;;;;;5037801;28;20436;-67
2024/02/02 01:40:13;;;;;;;16.93;8.30;;;6.70;99.90;;;;;;5035934;28;20436;-68
2024/02/02 01:42:40;;;;;;;17.90;8.03;;;6.80;99.90;;;;;;5036716;28;20431;-66
2024/02/02 01:45:06;;;;;;;20.47;7.50;;;6.80;99.90;;;;;;5036766;28;20189;-69
2024/02/02 01:47:32;;;;;;;16.30;7.60;;;6.80;99.90;;;;;;5036204;28;20539;-68
2024/02/02 01:49:58;;;;;;;19.60;8.50;;;6.80;99.90;;;;;;5037610;28;20430;-71
2024/02/02 01:52:24;;;;;;;16.43;7.37;;;6.80;99.90;;;;;;5035192;28;20428;-67
2024/02/02 01:54:50;;;;;;;15.43;7.67;;;6.80;99.90;;;;;;5036210;28;20292;-70
2024/02/02 01:57:16;;;;;;;14.70;7.50;;;6.80;99.90;;;;;;5035504;28;20546;-70
2024/02/02 01:59:41;;;;;;;16.53;7.60;;;6.80;99.90;;;;;;5037175;28;20190;-70
2024/02/02 02:02:07;;;;;;;17.60;7.47;;;6.70;99.90;;;;;;5036805;28;20824;-73
2024/02/02 02:04:33;;;;;;;12.70;6.77;;;6.80;99.90;;;;;;5036041;28;20544;-71
2024/02/02 02:07:00;;;;;;;21.73;8.63;;;6.80;99.90;;;;;;5049008;28;20186;-71
2024/02/02 02:09:26;;;;;;;26.47;8.00;;;6.80;99.90;;;;;;5033234;28;20428;-70
2024/02/02 02:11:51;;;;;;;14.27;7.23;;;6.70;99.90;;;;;;5032520;28;20440;-71
2024/02/02 02:14:17;;;;;;;16.57;6.57;;;6.80;99.90;;;;;;5033263;28;20982;-71
2024/02/02 02:16:44;;;;;;;15.40;6.93;;;6.80;99.90;;;;;;5031767;28;20192;-70
2024/02/02 02:19:16;;;;;;;16.63;7.53;;;6.70;99.90;;;;;;5033491;28;20421;-70
2024/02/02 02:21:42;;;;;;;11.80;7.00;;;6.80;99.90;;;;;;5031567;28;20440;-67
2024/02/02 02:24:11;;;;;;;17.37;7.43;;;6.70;99.90;;;;;;5033845;28;21396;-69
2024/02/02 02:26:38;;;;;;;15.60;5.90;;;6.80;99.90;;;;;;5032008;28;20813;-68
2024/02/02 02:29:04;;;;;;;8.73;5.47;;;6.70;99.90;;;;;;5030546;28;20432;-71
2024/02/02 02:31:30;;;;;;;9.27;5.40;;;6.80;99.90;;;;;;5031638;28;20487;-69
2024/02/02 02:33:55;;;;;;;11.93;5.77;;;6.80;99.90;;;;;;5033769;28;20471;-71
2024/02/02 02:36:21;;;;;;;12.50;5.50;;;6.80;99.90;;;;;;5031757;28;20424;-74
2024/02/02 02:38:48;;;;;;;11.67;5.20;;;6.80;99.90;;;;;;5033747;28;20213;-71
2024/02/02 02:41:14;;;;;;;11.33;5.07;;;6.80;99.90;;;;;;5032303;28;20191;-70
2024/02/02 02:43:40;;;;;;;15.80;4.57;;;6.80;99.90;;;;;;5032159;28;20552;-71
2024/02/02 02:46:07;;;;;;;9.20;5.37;;;6.90;99.90;;;;;;5032388;28;20428;-66
2024/02/02 02:48:33;;;;;;;11.03;4.43;;;6.90;99.90;;;;;;5031231;28;20456;-67
2024/02/02 02:50:59;;;;;;;10.83;4.93;;;6.90;99.90;;;;;;5033000;28;20432;-73
2024/02/02 02:53:25;;;;;;;13.43;5.17;;;6.90;99.90;;;;;;5031835;28;21046;-67
2024/02/02 02:55:50;;;;;;;14.00;4.80;;;6.80;99.90;;;;;;5032450;28;20520;-71
2024/02/02 02:58:16;;;;;;;12.80;5.10;;;6.90;99.90;;;;;;5033047;28;20464;-67
2024/02/02 03:00:44;;;;;;;12.20;5.77;;;6.90;99.90;;;;;;5032250;28;20978;-69
2024/02/02 03:03:09;;;;;;;14.30;5.47;;;6.90;99.90;;;;;;5033652;28;20313;-67
2024/02/02 03:05:37;;;;;;;16.53;5.87;;;6.80;99.90;;;;;;5030709;28;20477;-72
2024/02/02 03:08:05;;;;;;;15.57;5.43;;;6.90;99.90;;;;;;5032590;28;20273;-71
2024/02/02 03:10:30;;;;;;;13.17;6.00;;;6.90;99.90;;;;;;5031392;28;20482;-68
2024/02/02 03:12:56;;;;;;;14.57;5.10;;;6.80;99.90;;;;;;5032545;28;21000;-73
2024/02/02 03:15:22;;;;;;;10.87;5.73;;;6.90;99.90;;;;;;5030651;28;20186;-65
2024/02/02 03:17:48;;;;;;;8.43;4.97;;;6.80;99.90;;;;;;5031103;28;20174;-70
2024/02/02 03:20:15;;;;;;;13.60;5.93;;;6.80;99.90;;;;;;5031903;28;20305;-68
2024/02/02 03:22:41;;;;;;;16.43;6.13;;;6.80;99.90;;;;;;5031214;28;20434;-68
2024/02/02 03:25:07;;;;;;;15.30;6.17;;;6.80;99.90;;;;;;5032383;28;20488;-69
2024/02/02 03:27:33;;;;;;;13.10;5.40;;;6.80;99.90;;;;;;5029629;28;20441;-74
2024/02/02 03:29:59;;;;;;;14.07;6.20;;;6.80;99.90;;;;;;5032650;28;20436;-68
2024/02/02 03:32:25;;;;;;;13.93;6.33;;;6.90;99.90;;;;;;5031347;28;20493;-70
2024/02/02 03:34:50;;;;;;;15.53;6.03;;;6.80;99.90;;;;;;5032698;28;20602;-69
2024/02/02 03:37:18;;;;;;;12.77;6.20;;;6.80;99.90;;;;;;5031697;28;20612;-70
2024/02/02 03:39:45;;;;;;;12.03;6.20;;;6.80;99.90;;;;;;5032178;28;20842;-70
2024/02/02 03:42:14;;;;;;;14.17;6.70;;;6.80;99.90;;;;;;5030873;28;20436;-68
2024/02/02 03:44:40;;;;;;;19.33;6.63;;;6.80;99.90;;;;;;5032490;28;20443;-71
2024/02/02 03:47:06;;;;;;;12.10;5.93;;;6.70;99.90;;;;;;5029845;28;20448;-65
2024/02/02 03:49:33;;;;;;;16.43;5.70;;;6.80;99.90;;;;;;5031714;28;20194;-67
2024/02/02 03:52:00;;;;;;;11.40;5.23;;;6.70;99.90;;;;;;5031607;28;20428;-68
2024/02/02 03:54:26;;;;;;;12.20;5.40;;;6.70;99.90;;;;;;5031083;28;21016;-72
2024/02/02 03:56:52;;;;;;;12.07;6.30;;;6.80;99.90;;;;;;5030930;28;20447;-69
2024/02/02 03:59:18;;;;;;;13.47;6.40;;;6.80;99.90;;;;;;5031666;28;20433;-69
2024/02/02 04:01:44;;;;;;;13.33;6.47;;;6.80;99.90;;;;;;5030632;28;20425;-71
2024/02/02 04:04:10;;;;;;;16.70;6.93;;;6.80;99.90;;;;;;5032335;28;20559;-68
2024/02/02 04:06:36;;;;;;;14.33;7.20;;;6.80;99.90;;;;;;5029410;28;20936;-66
2024/02/02 04:09:01;;;;;;;12.03;7.00;;;6.80;99.90;;;;;;5032015;28;20213;-65
2024/02/02 04:11:28;;;;;;;15.00;6.47;;;6.80;99.90;;;;;;5030742;28;20268;-64
2024/02/02 04:13:54;;;;;;;15.67;6.37;;;6.80;99.90;;;;;;5031177;28;20508;-70
2024/02/02 04:16:20;;;;;;;10.93;6.67;;;6.80;99.90;;;;;;5030713;28;21166;-71
2024/02/02 04:18:46;;;;;;;9.63;6.30;;;6.90;99.90;;;;;;5030524;28;20441;-66
2024/02/02 04:21:11;;;;;;;14.27;5.43;;;6.90;99.90;;;;;;5031074;28;20518;-72
2024/02/02 04:23:37;;;;;;;15.83;6.20;;;6.80;99.90;;;;;;5030715;28;20193;-68
2024/02/02 04:26:03;;;;;;;13.90;6.23;;;6.80;99.90;;;;;;5030710;28;20916;-68
2024/02/02 04:28:28;;;;;;;19.03;7.03;;;6.80;99.90;;;;;;5028302;28;20204;-70
2024/02/02 04:30:54;;;;;;;13.67;6.27;;;6.80;99.90;;;;;;5030033;28;20194;-68
2024/02/02 04:33:20;;;;;;;14.40;6.27;;;6.80;99.90;;;;;;5031160;28;20243;-72
2024/02/02 04:35:45;;;;;;;12.03;5.87;;;6.80;99.90;;;;;;5028692;28;20189;-67
2024/02/02 04:38:11;;;;;;;12.63;6.07;;;6.80;99.90;;;;;;5030574;28;20178;-71
2024/02/02 04:40:37;;;;;;;18.90;7.53;;;6.90;99.90;;;;;;5030276;28;20194;-68
2024/02/02 04:43:03;;;;;;;12.33;6.70;;;6.80;99.90;;;;;;5031168;28;20186;-69
2024/02/02 04:45:28;;;;;;;13.40;6.40;;;6.80;99.90;;;;;;5031011;28;20294;-71
2024/02/02 04:47:54;;;;;;;11.47;6.30;;;6.90;99.90;;;;;;5030254;28;20449;-74
2024/02/02 04:50:21;;;;;;;17.27;6.83;;;6.80;99.90;;;;;;5013546;28;20856;-68
2024/02/02 04:52:47;;;;;;;20.87;7.00;;;6.80;99.90;;;;;;5029547;28;20186;-71
2024/02/02 04:55:13;;;;;;;12.77;6.07;;;6.80;99.90;;;;;;5030782;28;20440;-73
2024/02/02 04:57:39;;;;;;;9.47;5.37;;;6.70;99.90;;;;;;5030142;28;20197;-66
2024/02/02 05:00:05;;;;;;;10.50;6.17;;;6.80;99.90;;;;;;5030619;28;20186;-71
2024/02/02 05:02:31;;;;;;;18.10;6.70;;;6.70;99.90;;;;;;5030020;28;20240;-68
2024/02/02 05:04:57;;;;;;;12.67;5.90;;;6.80;99.90;;;;;;5030082;28;20434;-73
2024/02/02 05:07:23;;;;;;;13.67;7.17;;;6.80;99.90;;;;;;5030558;28;20898;-68
2024/02/02 05:09:49;;;;;;;11.67;5.93;;;6.80;99.90;;;;;;5030336;28;20424;-71
2024/02/02 05:12:15;;;;;;;12.60;5.67;;;6.90;99.90;;;;;;5028984;28;20664;-72
2024/02/02 05:14:42;;;;;;;12.60;5.63;;;6.90;99.90;;;;;;5029388;28;20214;-65
2024/02/02 05:17:08;;;;;;;12.80;5.20;;;6.90;99.90;;;;;;5029961;28;20439;-72
2024/02/02 05:19:34;;;;;;;13.03;6.10;;;6.90;99.90;;;;;;5031041;28;20495;-67
2024/02/02 05:22:00;;;;;;;12.53;5.97;;;6.80;99.90;;;;;;5030221;28;20464;-72
2024/02/02 05:24:26;;;;;;;16.87;6.00;;;6.80;99.90;;;;;;5030609;28;20451;-69
2024/02/02 05:26:52;;;;;;;10.67;5.73;;;6.80;99.90;;;;;;5028436;28;20567;-68
2024/02/02 05:29:18;;;;;;;14.53;8.57;;;6.70;99.90;;;;;;5028932;28;20702;-65
2024/02/02 05:31:43;;;;;;;11.13;5.40;;;6.80;99.90;;;;;;5030604;28;20490;-74
2024/02/02 05:34:09;;;;;;;11.77;5.53;;;6.70;99.90;;;;;;5031719;28;20300;-66
2024/02/02 05:36:35;;;;;;;11.20;5.90;;;6.70;99.90;;;;;;5029830;28;20195;-72
2024/02/02 05:39:00;;;;;;;14.63;5.60;;;6.80;99.90;;;;;;5030745;28;20331;-65
2024/02/02 05:41:26;;;;;;;16.90;5.97;;;6.80;99.90;;;;;;5032190;28;20193;-72
2024/02/02 05:43:52;;;;;;;13.93;4.70;;;6.70;99.90;;;;;;5034268;28;20642;-66
2024/02/02 05:46:17;;;;;;;10.53;4.83;;;6.80;99.90;;;;;;5034614;28;20272;-68
2024/02/02 05:48:43;;;;;;;11.07;5.40;;;6.80;99.90;;;;;;5035705;28;20285;-74
2024/02/02 05:51:09;;;;;;;13.57;5.40;;;6.80;99.90;;;;;;5034488;28;20189;-65
2024/02/02 05:53:34;;;;;;;10.20;5.07;;;6.80;99.90;;;;;;5035022;28;20249;-72
2024/02/02 05:56:00;;;;;;;15.03;6.17;;;6.80;99.90;;;;;;5034031;28;20182;-68
2024/02/02 05:58:26;;;;;;;9.70;4.80;;;6.70;99.90;;;;;;5034592;28;20182;-68
2024/02/02 06:00:52;;;;;;;8.97;5.17;;;6.70;99.90;;;;;;5032420;28;20217;-69
2024/02/02 06:03:18;;;;;;;17.30;6.40;;;6.70;99.90;;;;;;5034350;28;20836;-65
2024/02/02 06:05:43;;;;;;;13.80;5.70;;;6.70;99.90;;;;;;5033280;28;20189;-65
2024/02/02 06:08:13;;;;;;;13.57;5.27;;;6.70;99.90;;;;;;5034394;28;20897;-68
2024/02/02 06:10:40;;;;;;;13.07;5.27;;;6.70;99.90;;;;;;5033694;28;20528;-68
2024/02/02 06:13:07;;;;;;;19.30;6.10;;;6.70;99.90;;;;;;5032560;28;20456;-72
2024/02/02 06:15:33;;;;;;;20.43;6.33;;;6.70;99.90;;;;;;5033300;28;20425;-70
2024/02/02 06:17:59;;;;;;;11.40;5.40;;;6.70;99.90;;;;;;5033888;28;20779;-70
2024/02/02 06:20:24;;;;;;;17.73;6.13;;;6.70;99.90;;;;;;5034029;28;20566;-70
2024/02/02 06:22:50;;;;;;;12.47;5.33;;;6.70;99.90;;;;;;5034189;28;20261;-67
2024/02/02 06:25:16;;;;;;;11.57;6.03;;;6.70;99.90;;;;;;5033675;28;20609;-68
2024/02/02 06:27:42;;;;;;;12.33;5.20;;;6.70;99.90;;;;;;5031339;28;20190;-71
2024/02/02 06:30:08;;;;;;;9.43;4.90;;;6.70;99.90;;;;;;5016121;28;21075;-70
2024/02/02 06:32:35;;;;;;;13.90;5.87;;;6.60;99.90;;;;;;5033773;28;20178;-72
2024/02/02 06:35:02;;;;;;;16.77;4.73;;;6.60;99.90;;;;;;5033545;28;20525;-68
2024/02/02 06:37:28;;;;;;;13.33;5.20;;;6.60;99.90;;;;;;5032723;28;20517;-66
2024/02/02 06:39:55;;;;;;;11.43;5.53;;;6.60;99.90;;;;;;5034056;28;20457;-69
2024/02/02 06:42:24;;;;;;;19.43;6.10;;;6.60;99.90;;;;;;5033830;28;20600;-72
2024/02/02 06:44:54;;;;;;;15.17;5.20;;;6.60;99.90;;;;;;5033692;28;20435;-71
2024/02/02 06:47:21;;;;;;;13.37;4.87;;;6.70;99.90;;;;;;5032538;28;20440;-70
2024/02/02 06:49:46;;;;;;;13.33;5.83;;;6.70;99.90;;;;;;5033731;28;20826;-67
2024/02/02 06:52:16;;;;;;;11.70;5.03;;;6.80;99.90;;;;;;5031910;28;20421;-74
2024/02/02 06:54:42;;;;;;;9.40;4.30;;;6.80;99.90;;;;;;5032739;28;20536;-67
2024/02/02 06:57:09;;;;;;;13.10;5.37;;;6.70;99.90;;;;;;5031706;28;20434;-67
2024/02/02 06:59:35;;;;;;;13.10;5.07;;;6.70;99.90;;;;;;5033127;28;21033;-68
2024/02/02 07:02:25;;;;;;;13.50;4.90;;;6.80;99.90;;;;;;5032815;28;20425;-69
2024/02/02 07:04:51;;;;;;;11.87;4.60;;;6.80;99.90;;;;;;5033739;28;20780;-65
2024/02/02 07:07:18;;;;;;;10.53;4.47;;;6.80;99.90;;;;;;5031672;28;20478;-66
2024/02/02 07:09:56;;;;;;;14.47;4.70;;;6.90;99.90;;;;;;5032891;28;21781;-67
2024/02/02 07:12:49;;;;;;;11.57;3.83;;;6.80;99.90;;;;;;5032479;28;20528;-68
2024/02/02 07:15:18;;;;;;;9.83;4.10;;;6.90;99.90;;;;;;5031320;28;20433;-69
2024/02/02 07:17:45;;;;;;;12.13;4.80;;;6.90;99.90;;;;;;5032000;28;20788;-66
2024/02/02 07:20:23;;;;;;;12.43;4.43;;;6.90;99.90;;;;;;5032637;28;20857;-67
2024/02/02 07:22:51;;;;;;;13.27;4.30;;;6.90;99.90;;;;;;5032132;28;20428;-68
2024/02/02 07:25:21;;;;;;;9.67;4.90;;;6.90;99.90;;;;;;5029853;28;20432;-73
2024/02/02 07:28:07;;;;;;;9.07;4.93;;;6.90;99.90;;;;;;5030898;28;20980;-68
2024/02/02 07:30:47;;;;;;;10.47;4.10;;;7.00;99.90;;;;;;5032835;28;20428;-71
2024/02/02 07:33:25;;;;;;;13.50;4.20;;;7.00;99.90;;;;;;5031275;28;20480;-65
2024/02/02 07:35:57;;;;;;;14.83;4.83;;;7.00;99.90;;;;;;5032799;28;20477;-64
2024/02/02 07:38:42;;;;;;;11.47;5.03;;;7.00;99.90;;;;;;5031710;28;20429;-66
2024/02/02 07:41:10;;;;;;;10.13;4.03;;;6.90;99.90;;;;;;5030983;28;20939;-69
2024/02/02 07:43:36;;;;;;;13.70;4.80;;;6.90;99.90;;;;;;5032700;28;20521;-70
2024/02/02 07:46:03;;;;;;;17.73;5.47;;;6.90;99.90;;;;;;5032316;28;20503;-67
2024/02/02 07:48:29;;;;;;;11.07;4.30;;;6.90;99.90;;;;;;5032047;28;20205;-69
2024/02/02 07:50:55;;;;;;;14.20;4.20;;;6.90;99.90;;;;;;5030716;28;21017;-73
2024/02/02 07:53:21;;;;;;;12.30;4.40;;;6.90;99.90;;;;;;5032207;28;20472;-68
2024/02/02 07:55:47;;;;;;;8.40;4.10;;;6.90;99.90;;;;;;5031739;28;20429;-68
2024/02/02 07:58:12;;;;;;;10.40;3.97;;;6.90;99.90;;;;;;5031824;28;20190;-68
2024/02/02 08:00:38;;;;;;;13.80;4.13;;;6.90;99.90;;;;;;5014285;28;20725;-68
2024/02/02 08:03:06;;;;;;;10.83;3.80;;;6.90;99.90;;;;;;5032008;28;20194;-69
2024/02/02 08:05:36;;;;;;;11.17;3.70;;;7.00;99.90;;;;;;5029328;28;20185;-72
2024/02/02 08:08:01;;;;;;;8.73;4.17;;;7.00;99.90;;;;;;5032136;28;20482;-70
2024/02/02 08:10:27;;;;;;;8.67;3.57;;;7.00;99.90;;;;;;5031162;28;20429;-66
2024/02/02 08:12:53;;;;;;;9.07;3.63;;;7.00;99.90;;;;;;5031089;28;20178;-70
2024/02/02 08:15:18;;;;;;;9.83;3.37;;;7.10;99.90;;;;;;5030658;28;21099;-72
2024/02/02 08:17:44;;;;;;;7.63;3.50;;;7.10;99.90;;;;;;5031595;28;20187;-65
2024/02/02 08:20:10;;;;;;;12.10;4.10;;;7.20;99.90;;;;;;5031283;28;20181;-68
2024/02/02 08:22:36;;;;;;;15.77;4.37;;;7.50;99.90;;;;;;5031442;28;20277;-67
2024/02/02 08:25:02;;;;;;;8.90;4.07;;;7.60;99.90;;;;;;5031690;28;20511;-65
2024/02/02 08:27:28;;;;;;;10.30;3.97;;;7.80;99.90;;;;;;5028881;28;20178;-69
2024/02/02 08:29:53;;;;;;;11.40;3.70;;;7.90;99.90;;;;;;5031051;28;20254;-67
2024/02/02 08:32:19;;;;;;;16.13;3.47;;;8.10;99.90;;;;;;5028830;28;20432;-68
2024/02/02 08:34:45;;;;;;;11.17;4.60;;;8.20;99.90;;;;;;5031747;28;20210;-68
2024/02/02 08:37:11;;;;;;;13.93;4.47;;;8.20;99.90;;;;;;5030846;28;20189;-71
2024/02/02 08:39:37;;;;;;;11.50;3.80;;;8.20;99.90;;;;;;5031238;28;20193;-71
2024/02/02 08:42:09;;;;;;;12.77;4.07;;;8.30;99.90;;;;;;5031449;28;20428;-70
2024/02/02 08:44:35;;;;;;;14.03;4.70;;;8.30;99.90;;;;;;5030077;28;20429;-67
2024/02/02 08:47:01;;;;;;;11.20;3.40;;;8.20;99.90;;;;;;5031079;28;21161;-70
2024/02/02 08:49:38;;;;;;;8.97;3.80;;;8.20;99.90;;;;;;5030302;28;20421;-70
2024/02/02 08:52:16;;;;;;;7.27;3.80;;;8.30;99.90;;;;;;5029986;28;20191;-73
2024/02/02 08:54:46;;;;;;;10.20;4.07;;;8.50;99.90;;;;;;5031008;28;20464;-68
2024/02/02 08:57:23;;;;;;;9.60;4.07;;;8.60;99.90;;;;;;5030847;28;20424;-66
2024/02/02 08:59:52;;;;;;;7.37;3.97;;;8.80;99.90;;;;;;5030461;28;20435;-69
2024/02/02 09:02:29;;;;;;;7.83;4.23;;;8.80;99.90;;;;;;5030701;28;20429;-69
2024/02/02 09:05:10;;;;;;;11.57;3.87;;;8.80;99.90;;;;;;5030835;28;20424;-70
2024/02/02 09:07:36;;;;;;;6.33;3.97;;;8.80;99.90;;;;;;5029390;28;20555;-67
2024/02/02 09:10:28;;;;;;;9.20;4.70;;;8.80;99.90;;;;;;5030035;28;20442;-70
2024/02/02 09:13:00;;;;;;;10.67;3.90;;;8.90;99.90;;;;;;5030845;28;20440;-65
2024/02/02 09:15:26;;;;;;;11.30;3.73;;;8.90;99.90;;;;;;5030212;28;20510;-66
2024/02/02 09:17:52;;;;;;;11.87;4.40;;;9.00;99.90;;;;;;5035400;28;20423;-71
2024/02/02 09:20:33;;;;;;;11.20;4.50;;;9.00;99.90;;;;;;5034498;28;20429;-71
2024/02/02 09:22:59;;;;;;;12.17;4.43;;;9.00;99.90;;;;;;5034871;28;20197;-69
2024/02/02 09:25:32;;;;;;;8.10;4.20;;;8.90;99.90;;;;;;5033303;28;20795;-68
2024/02/02 09:27:58;;;;;;;12.53;4.43;;;8.90;99.90;;;;;;5032686;28;20433;-74
2024/02/02 09:30:24;;;;;;;10.90;3.93;;;9.00;99.90;;;;;;5034640;28;21096;-70
2024/02/02 09:32:49;;;;;;;9.70;4.33;;;9.00;99.90;;;;;;5033909;28;20474;-67
2024/02/02 09:35:53;;;;;;;8.53;4.50;;;8.90;99.90;;;;;;5034709;28;20368;-66
2024/02/02 09:38:19;;;;;;;11.50;4.20;;;8.90;99.90;;;;;;5033866;28;20217;-70
2024/02/02 09:40:51;;;;;;;12.87;5.00;;;8.90;99.90;;;;;;5033784;28;20465;-72
2024/02/02 09:43:25;;;;;;;11.53;4.80;;;8.90;99.90;;;;;;5034078;28;20201;-69
2024/02/02 09:46:13;;;;;;;7.73;4.20;;;9.00;99.90;;;;;;5033495;28;20538;-71
2024/02/02 09:48:57;;;;;;;8.43;4.60;;;8.90;99.90;;;;;;5033604;28;20429;-74
2024/02/02 09:51:32;;;;;;;12.97;5.10;;;9.00;99.90;;;;;;5032668;28;20436;-71
2024/02/02 09:54:07;;;;;;;9.70;4.53;;;9.00;99.90;;;;;;5032775;28;20510;-69
2024/02/02 09:57:13;;;;;;;8.93;4.50;;;9.00;99.90;;;;;;5033160;28;20428;-68
2024/02/02 09:59:42;;;;;;;11.57;5.60;;;9.00;99.90;;;;;;5033431;28;21476;-68
2024/02/02 10:02:16;;;;;;;7.37;3.87;;;9.10;99.90;;;;;;5033043;28;20425;-70
2024/02/02 10:04:53;;;;;;;8.07;3.27;;;9.10;99.90;;;;;;5033433;28;20903;-69
2024/02/02 10:07:56;;;;;;;12.33;4.33;;;9.20;99.90;;;;;;5033561;28;20443;-69
2024/02/02 10:10:43;;;;;;;8.47;3.77;;;9.20;99.90;;;;;;5032969;28;20416;-71
2024/02/02 10:13:47;;;;;;;16.03;5.30;;;9.20;99.90;;;;;;5033130;28;20429;-68
2024/02/02 10:16:21;;;;;;;10.10;4.73;;;9.20;99.90;;;;;;5032848;28;20424;-71
2024/02/02 10:19:29;;;;;;;9.87;4.40;;;9.20;99.90;;;;;;5033225;28;20487;-66
2024/02/02 10:22:01;;;;;;;12.27;4.00;;;9.40;99.90;;;;;;5033388;28;20887;-69
2024/02/02 10:24:39;;;;;;;5.53;4.13;;;9.50;99.90;;;;;;5032131;28;21301;-71
2024/02/02 10:27:17;;;;;;;10.40;3.90;;;9.50;99.90;;;;;;5031266;28;20421;-68
2024/02/02 10:29:49;;;;;;;11.50;4.23;;;9.60;99.90;;;;;;5032331;28;20427;-70
2024/02/02 10:32:22;;;;;;;12.60;4.90;;;9.80;99.90;;;;;;5033273;28;20452;-69
2024/02/02 10:34:47;;;;;;;6.50;3.70;;;9.90;99.90;;;;;;5032378;28;20555;-68
2024/02/02 10:37:31;;;;;;;16.43;4.87;;;10.10;99.90;;;;;;5031476;28;20434;-71
2024/02/02 10:39:56;;;;;;;9.20;3.77;;;10.20;99.90;;;;;;5033203;28;20566;-69
2024/02/02 10:43:03;;;;;;;6.70;4.13;;;10.30;99.90;;;;;;5032523;28;20480;-68
2024/02/02 10:45:36;;;;;;;11.77;4.33;;;10.50;99.90;;;;;;5032690;28;20184;-71
2024/02/02 10:48:04;;;;;;;7.43;3.93;;;10.60;99.90;;;;;;5033168;28;20451;-69
2024/02/02 10:50:35;;;;;;;8.93;3.80;;;10.80;99.90;;;;;;5016771;28;20451;-71
2024/02/02 10:53:11;;;;;;;13.13;5.20;;;11.00;99.90;;;;;;5032566;28;20539;-70
2024/02/02 10:55:42;;;;;;;8.07;4.13;;;11.10;99.90;;;;;;5031420;28;20532;-69
2024/02/02 10:58:24;;;;;;;13.57;4.80;;;11.10;99.90;;;;;;5032692;28;20484;-68
2024/02/02 11:00:59;;;;;;;9.27;3.90;;;11.10;99.90;;;;;;5030596;28;20446;-69
2024/02/02 11:03:33;;;;;;;7.97;4.73;;;11.00;99.90;;;;;;5032251;28;20507;-68
2024/02/02 11:06:14;;;;;;;11.20;4.33;;;10.80;99.90;;;;;;5031893;28;20425;-68
2024/02/02 11:08:48;;;;;;;8.77;4.37;;;10.80;99.90;;;;;;5031889;28;20427;-70
2024/02/02 11:11:23;;;;;;;8.77;4.53;;;11.00;99.90;;;;;;5032188;28;21050;-67
2024/02/02 11:14:15;;;;;;;8.63;4.43;;;11.20;99.90;;;;;;5031803;28;20453;-69
2024/02/02 11:17:04;;;;;;;10.87;4.23;;;11.30;99.90;;;;;;5014765;28;20949;-68
2024/02/02 11:19:40;;;;;;;9.00;4.70;;;11.20;99.90;;;;;;5032230;28;20425;-67
2024/02/02 11:22:13;;;;;;;11.30;4.43;;;11.20;99.90;;;;;;5030967;28;20790;-73
2024/02/02 11:24:52;;;;;;;11.30;4.73;;;11.10;99.90;;;;;;5032433;28;20429;-74
2024/02/02 11:27:29;;;;;;;8.03;4.40;;;11.00;99.90;;;;;;5029764;28;20440;-70
2024/02/02 11:30:30;;;;;;;11.17;4.33;;;10.90;99.90;;;;;;5031862;28;20424;-68
2024/02/02 11:33:14;;;;;;;13.03;4.27;;;10.90;99.90;;;;;;5015560;28;20447;-69
2024/02/02 11:36:05;;;;;;;7.57;4.13;;;10.80;99.90;;;;;;5031922;28;20424;-68
2024/02/02 11:38:56;;;;;;;9.97;4.63;;;10.70;99.90;;;;;;5031422;28;20432;-68
2024/02/02 11:41:27;;;;;;;9.67;4.90;;;10.70;99.90;;;;;;5030151;28;20428;-71
2024/02/02 11:43:54;;;;;;;8.83;4.57;;;10.70;99.90;;;;;;5031713;28;20425;-68
2024/02/02 11:46:25;;;;;;;12.27;4.83;;;10.70;99.90;;;;;;5030088;28;20429;-69
2024/02/02 11:49:01;;;;;;;12.73;4.10;;;10.80;99.90;;;;;;5031379;28;20514;-69
2024/02/02 11:51:28;;;;;;;10.97;4.73;;;10.80;99.90;;;;;;5031508;28;20990;-67
2024/02/02 11:54:30;;;;;;;16.03;5.07;;;10.90;99.90;;;;;;5031385;28;20609;-69
2024/02/02 11:56:59;;;;;;;11.30;4.20;;;11.00;99.90;;;;;;5030056;28;20464;-70
2024/02/02 11:59:36;;;;;;;24.37;5.10;;;11.00;99.90;;;;;;5030000;28;20536;-69
2024/02/02 12:02:17;;;;;;;10.30;4.47;;;11.20;99.90;;;;;;5029514;28;20424;-66
2024/02/02 12:04:53;;;;;;;8.47;4.20;;;11.50;99.90;;;;;;5031452;28;20420;-72
2024/02/02 12:07:40;;;;;;;11.27;5.17;;;11.80;99.90;;;;;;5030450;28;20428;-68
2024/02/02 12:10:09;;;;;;;7.90;3.80;;;12.00;99.90;;;;;;5030581;28;20432;-72
2024/02/02 12:12:58;;;;;;;8.60;4.50;;;12.20;99.90;;;;;;5031447;28;20428;-68
2024/02/02 12:15:26;;;;;;;8.87;4.10;;;12.20;99.90;;;;;;5030743;28;20448;-71
2024/02/02 12:17:53;;;;;;;8.33;4.20;;;12.30;99.90;;;;;;5029794;28;20447;-68
2024/02/02 12:20:18;;;;;;;12.73;5.23;;;12.50;99.90;;;;;;5030225;28;20756;-73
2024/02/02 12:22:45;;;;;;;7.47;4.00;;;12.70;99.90;;;;;;5031354;28;20489;-71
2024/02/02 12:25:13;;;;;;;11.17;5.00;;;13.00;99.90;;;;;;5029709;28;20190;-69
2024/02/02 12:27:39;;;;;;;11.83;5.20;;;13.30;99.90;;;;;;5029064;28;20437;-71
2024/02/02 12:30:07;;;;;;;12.70;5.50;;;13.60;99.90;;;;;;5030009;28;20517;-69
2024/02/02 12:32:34;;;;;;;9.93;3.93;;;13.80;99.90;;;;;;5030549;28;21168;-75
2024/02/02 12:35:04;;;;;;;8.13;4.50;;;13.80;99.90;;;;;;5029851;28;20978;-73
2024/02/02 12:37:29;;;;;;;12.00;4.63;;;13.90;99.90;;;;;;5030062;28;20463;-69
2024/02/02 12:39:55;;;;;;;13.73;4.47;;;13.80;99.90;;;;;;5031136;28;20981;-71
2024/02/02 12:42:24;;;;;;;12.30;5.23;;;13.50;99.90;;;;;;5029345;28;20920;-73
2024/02/02 12:44:50;;;;;;;13.63;5.00;;;13.40;99.90;;;;;;5030884;28;20269;-70
2024/02/02 12:47:26;;;;;;;6.80;4.50;;;13.20;99.90;;;;;;5029464;28;20455;-69
2024/02/02 12:49:54;;;;;;;11.60;5.43;;;13.00;99.90;;;;;;5029599;28;20427;-70
2024/02/02 12:52:20;;;;;;;10.53;5.00;;;12.90;99.90;;;;;;5029000;28;20520;-68
2024/02/02 12:54:46;;;;;;;10.73;5.33;;;12.70;99.90;;;;;;5030816;28;20884;-73
2024/02/02 12:57:12;;;;;;;13.40;5.37;;;12.60;99.90;;;;;;5028434;28;20463;-72
2024/02/02 12:59:38;;;;;;;16.97;6.70;;;12.60;99.90;;;;;;5030571;28;20469;-69